Time;durP1;ratioP1;P1;durP2;ratioP2;P2;SDS_P1;SDS_P2;PMS_P1;PMS_P2;Temp;Humidity;BMP_temperature;BMP_pressure;BME280_temperature;BME280_humidity;BME280_pressure;Samples;Min_cycle;Max_cycle;Signal;HPM_P1;HPM_P2
2021/12/24 00:00:09;;;;;;;;;19.75;17.50;;;;;8.52;79.30;100256.72;5059900;28;45593;-77
2021/12/24 00:02:35;;;;;;;;;20.25;15.75;;;;;8.60;79.28;100264.50;5042027;28;45424;-77
2021/12/24 00:05:00;;;;;;;;;17.25;16.00;;;;;8.58;79.01;100270.69;5038746;28;46034;-77
2021/12/24 00:07:26;;;;;;;;;22.00;17.00;;;;;8.57;78.82;100264.56;5053791;28;45559;-77
2021/12/24 00:09:51;;;;;;;;;22.75;15.75;;;;;8.58;79.25;100275.94;5050391;28;45505;-77
2021/12/24 00:12:19;;;;;;;;;18.25;13.50;;;;;8.58;79.00;100271.56;5070202;28;46958;-78
2021/12/24 00:14:50;;;;;;;;;18.00;15.00;;;;;8.56;78.89;100257.53;5053135;28;45341;-78
2021/12/24 00:17:20;;;;;;;;;15.50;14.50;;;;;8.58;79.52;100271.56;5040271;28;45449;-75
2021/12/24 00:20:02;;;;;;;;;18.75;17.00;;;;;8.53;79.27;100262.84;5044712;28;45382;-75
2021/12/24 00:36:17;;;;;;;;;17.25;16.50;;;;;8.48;78.77;100249.75;5011636;28;45572;-75
2021/12/24 00:38:43;;;;;;;;;28.00;22.25;;;;;8.47;79.04;100247.16;5010687;28;45720;-77
2021/12/24 00:41:08;;;;;;;;;15.75;14.00;;;;;8.47;79.43;100241.88;5011903;28;45344;-78
2021/12/24 00:43:34;;;;;;;;;14.50;9.50;;;;;8.47;79.44;100236.63;5011984;28;45894;-77
2021/12/24 00:45:59;;;;;;;;;17.50;13.00;;;;;8.47;79.06;100233.97;5011841;28;45568;-78
2021/12/24 00:48:24;;;;;;;;;22.00;16.50;;;;;8.42;79.47;100223.50;5011778;28;45516;-77
2021/12/24 00:56:08;;;;;;;;;19.00;18.50;;;;;8.45;79.74;100212.06;5009249;28;45544;-78
2021/12/24 00:58:35;;;;;;;;;19.25;18.50;;;;;8.46;79.14;100203.28;4994926;28;45604;-77
2021/12/24 01:01:00;;;;;;;;;20.25;18.25;;;;;8.47;79.16;100194.47;5004144;28;45399;-78
2021/12/24 01:03:26;;;;;;;;;29.00;22.75;;;;;8.43;79.38;100187.50;4997496;28;46321;-77
2021/12/24 01:05:53;;;;;;;;;24.25;19.25;;;;;8.43;79.34;100185.72;5001437;28;45577;-77
2021/12/24 01:08:18;;;;;;;;;18.00;18.00;;;;;8.47;79.37;100183.94;5011623;28;45550;-77
2021/12/24 01:10:48;;;;;;;;;15.50;13.00;;;;;8.46;79.35;100182.22;5036489;28;45580;-78
2021/12/24 01:13:15;;;;;;;;;23.75;18.75;;;;;8.45;79.88;100175.19;5055748;28;46536;-78
2021/12/24 01:15:59;;;;;;;;;18.50;16.00;;;;;8.44;79.42;100178.72;5056593;28;45397;-77
2021/12/24 01:21:02;;;;;;;;;23.50;20.25;;;;;8.40;79.33;100166.50;5049692;28;45613;-77
2021/12/24 01:26:10;;;;;;;;;25.75;23.50;;;;;8.39;79.60;100168.22;5052645;28;45420;-77
2021/12/24 01:44:29;;;;;;;;;17.75;14.75;;;;;8.38;79.99;100178.78;5054614;28;45420;-77
2021/12/24 01:46:57;;;;;;;;;24.00;18.50;;;;;8.37;79.23;100180.56;5057206;28;45308;-78
2021/12/24 01:49:23;;;;;;;;;23.00;16.50;;;;;8.40;79.30;100174.41;5059304;28;45351;-76
2021/12/24 01:51:51;;;;;;;;;12.00;10.00;;;;;8.39;79.76;100177.91;5045391;28;45401;-77
2021/12/24 01:54:16;;;;;;;;;21.00;15.75;;;;;8.38;80.04;100179.69;5051883;28;45467;-77
2021/12/24 01:56:43;;;;;;;;;15.75;9.00;;;;;8.41;79.55;100182.28;5039920;28;45517;-78
2021/12/24 01:59:09;;;;;;;;;19.75;19.75;;;;;8.40;79.19;100171.75;5044472;28;45433;-77
2021/12/24 02:01:34;;;;;;;;;22.50;18.25;;;;;8.40;79.16;100169.13;5045502;28;45402;-77
2021/12/24 02:04:00;;;;;;;;;21.00;12.75;;;;;8.41;79.17;100173.47;5037487;28;45805;-78
2021/12/24 02:06:25;;;;;;;;;24.50;20.00;;;;;8.41;79.43;100184.00;5057798;28;45433;-77
2021/12/24 02:08:50;;;;;;;;;19.00;14.50;;;;;8.41;79.58;100184.00;5044296;28;45402;-77
2021/12/24 02:11:16;;;;;;;;;22.75;16.25;;;;;8.40;79.80;100192.84;5055735;28;45468;-77
2021/12/24 02:13:41;;;;;;;;;24.25;15.75;;;;;8.41;79.28;100184.91;5057019;28;45983;-77
2021/12/24 02:16:37;;;;;;;;;14.00;10.50;;;;;8.40;79.28;100182.28;5056408;28;45387;-77
2021/12/24 02:29:53;;;;;;;;;20.00;16.00;;;;;8.29;79.26;100149.09;5053881;28;45313;-77
2021/12/24 02:32:18;;;;;;;;;20.50;18.25;;;;;8.27;79.40;100150.03;5047895;28;45311;-78
2021/12/24 02:34:44;;;;;;;;;20.00;16.00;;;;;8.26;80.21;100151.78;5041663;28;45920;-78
2021/12/24 02:37:11;;;;;;;;;21.25;15.00;;;;;8.25;79.53;100147.41;5056346;28;45637;-77
2021/12/24 02:39:37;;;;;;;;;24.00;20.00;;;;;8.25;79.53;100157.09;5056109;28;45406;-78
2021/12/24 02:42:20;;;;;;;;;22.00;19.50;;;;;8.24;79.62;100139.53;5055087;28;45760;-77
2021/12/24 02:44:49;;;;;;;;;17.00;16.50;;;;;8.24;79.78;100150.06;5043098;28;46309;-77
2021/12/24 02:54:57;;;;;;;;;16.00;14.50;;;;;8.17;79.81;100146.69;5054696;28;45432;-78
2021/12/24 02:57:27;;;;;;;;;17.00;15.50;;;;;8.18;80.13;100136.13;5055622;28;45480;-78
2021/12/24 03:00:02;;;;;;;;;16.75;16.50;;;;;8.17;79.58;100139.66;5055448;28;45362;-78
2021/12/24 03:02:30;;;;;;;;;24.25;22.00;;;;;8.19;80.05;100135.22;5053769;28;45530;-78
2021/12/24 03:04:56;;;;;;;;;21.50;18.50;;;;;8.21;79.95;100145.72;5054616;28;46117;-77
2021/12/24 03:07:22;;;;;;;;;18.50;15.75;;;;;8.22;80.44;100147.47;5064998;28;45493;-77
2021/12/24 03:09:47;;;;;;;;;27.50;23.75;;;;;8.21;79.87;100143.09;5052018;28;45482;-77
2021/12/24 03:12:13;;;;;;;;;24.75;18.25;;;;;8.19;80.17;100139.63;5055462;28;45420;-77
2021/12/24 03:14:39;;;;;;;;;22.75;19.25;;;;;8.21;79.96;100137.81;5053011;28;46179;-77
2021/12/24 03:17:09;;;;;;;;;20.00;15.50;;;;;8.20;79.66;100130.84;5042140;28;45433;-77
2021/12/24 03:19:35;;;;;;;;;27.00;21.75;;;;;8.19;79.69;100129.94;5050971;28;45496;-77
2021/12/24 03:24:35;;;;;;;;;27.25;20.00;;;;;8.20;80.38;100133.47;5052580;28;45835;-78
2021/12/24 03:27:01;;;;;;;;;16.00;15.50;;;;;8.22;79.93;100136.09;5053947;28;45591;-77
2021/12/24 03:29:26;;;;;;;;;20.50;19.00;;;;;8.21;79.64;100115.91;5053991;28;45413;-77
2021/12/24 03:31:52;;;;;;;;;18.00;16.75;;;;;8.23;79.85;100120.25;5050699;28;45688;-78
2021/12/24 03:34:21;;;;;;;;;24.25;22.25;;;;;8.22;80.08;100105.34;5041300;28;46069;-77
2021/12/24 03:36:47;;;;;;;;;19.75;18.00;;;;;8.25;79.66;100105.28;5052011;28;45361;-76
2021/12/24 03:39:14;;;;;;;;;26.50;22.25;;;;;8.24;79.52;100106.16;5043570;28;45401;-77
2021/12/24 03:41:39;;;;;;;;;12.25;12.00;;;;;8.26;80.11;100111.41;5050064;28;45557;-77
2021/12/24 03:44:08;;;;;;;;;18.25;18.25;;;;;8.25;80.14;100107.91;5053650;28;45660;-77
2021/12/24 03:46:44;;;;;;;;;19.50;17.00;;;;;8.24;79.79;100111.44;5033857;28;45410;-76
2021/12/24 03:49:18;;;;;;;;;19.50;15.25;;;;;8.23;79.89;100101.81;5034451;28;45505;-77
2021/12/24 03:56:59;;;;;;;;;24.50;16.00;;;;;8.28;80.35;100113.13;5053791;28;45543;-78
2021/12/24 03:59:24;;;;;;;;;20.50;17.00;;;;;8.29;79.65;100099.06;5056395;28;45809;-77
2021/12/24 04:01:50;;;;;;;;;20.00;16.00;;;;;8.29;79.81;100091.19;5046161;28;45448;-77
2021/12/24 04:04:15;;;;;;;;;17.50;15.25;;;;;8.29;79.67;100078.00;5054848;28;45515;-78
2021/12/24 04:06:40;;;;;;;;;24.00;18.75;;;;;8.25;80.15;100078.97;5049176;28;45430;-78
2021/12/24 04:09:08;;;;;;;;;23.50;19.25;;;;;8.29;79.52;100079.75;5055440;28;45334;-78
2021/12/24 04:11:35;;;;;;;;;22.00;17.75;;;;;8.28;79.84;100080.69;5047735;28;45378;-77
2021/12/24 04:14:01;;;;;;;;;16.75;13.50;;;;;8.25;80.26;100081.59;5039243;28;45429;-77
2021/12/24 04:16:28;;;;;;;;;16.00;16.00;;;;;8.23;80.31;100083.41;5070193;28;46055;-77
2021/12/24 04:19:15;;;;;;;;;22.00;16.50;;;;;8.21;80.13;100079.91;5054324;28;45313;-78
2021/12/24 04:27:08;;;;;;;;;14.25;12.25;;;;;8.24;80.30;100066.69;5054376;28;45354;-75
2021/12/24 04:29:33;;;;;;;;;19.00;16.50;;;;;8.24;80.78;100050.88;5052840;28;45452;-76
2021/12/24 04:32:20;;;;;;;;;15.50;15.00;;;;;8.23;80.57;100043.91;5051714;28;45405;-74
2021/12/24 04:34:49;;;;;;;;;14.00;12.50;;;;;8.25;80.40;100042.09;5054538;28;45520;-75
2021/12/24 04:39:55;;;;;;;;;17.50;14.50;;;;;8.22;81.05;100036.88;5054635;28;45399;-75
2021/12/24 05:01:13;;;;;;;;;21.00;16.75;;;;;8.24;81.06;100032.44;5038385;28;45530;-75
2021/12/24 05:01:50;;;;;;;;;11.00;9.75;;;;;8.24;81.04;100024.56;5056835;28;45487;-76
2021/12/24 05:04:16;;;;;;;;;16.00;13.50;;;;;8.25;81.25;100031.56;5044275;28;45463;-75
2021/12/24 05:06:51;;;;;;;;;20.00;14.50;;;;;8.26;81.38;100025.41;5057534;28;46272;-75
2021/12/24 05:09:22;;;;;;;;;26.00;23.00;;;;;8.26;81.67;100025.41;5056132;28;45446;-75
2021/12/24 05:11:47;;;;;;;;;11.00;11.00;;;;;8.25;81.42;100036.81;5058070;28;45408;-76
2021/12/24 05:14:15;;;;;;;;;17.75;17.75;;;;;8.24;81.37;100027.19;5056793;28;45310;-75
2021/12/24 05:16:48;;;;;;;;;18.50;15.00;;;;;8.28;81.42;100026.25;5056604;28;45420;-75
2021/12/24 05:21:59;;;;;;;;;17.75;14.00;;;;;8.27;81.70;100024.50;5044330;28;45377;-75
2021/12/24 05:24:26;;;;;;;;;20.75;18.25;;;;;8.29;81.95;100022.72;5072024;28;45455;-75
2021/12/24 05:26:58;;;;;;;;;15.00;13.00;;;;;8.29;82.24;100012.19;5056851;28;46690;-75
2021/12/24 05:29:24;;;;;;;;;25.25;19.75;;;;;8.28;82.32;100002.53;5054254;28;45506;-75
2021/12/24 05:31:50;;;;;;;;;13.50;13.50;;;;;8.31;82.63;100007.75;5056428;28;45416;-75
2021/12/24 05:34:17;;;;;;;;;22.50;21.00;;;;;8.27;82.62;99998.16;5046748;28;45455;-75
2021/12/24 05:36:43;;;;;;;;;19.50;16.00;;;;;8.29;82.56;100012.19;5046032;28;46188;-74
2021/12/24 05:39:10;;;;;;;;;15.00;12.75;;;;;8.28;82.82;100005.16;5052934;28;45345;-75
2021/12/24 05:41:36;;;;;;;;;13.00;13.00;;;;;8.29;83.04;100012.19;5056973;28;45421;-76
2021/12/24 05:44:03;;;;;;;;;13.00;12.50;;;;;8.24;82.70;100006.13;5056308;28;45414;-77
2021/12/24 05:46:29;;;;;;;;;21.75;19.50;;;;;8.25;83.39;100005.22;5043237;28;46048;-76
2021/12/24 05:48:55;;;;;;;;;19.00;16.50;;;;;8.23;82.96;100008.78;5056666;28;45459;-74
2021/12/24 05:51:20;;;;;;;;;16.25;15.25;;;;;8.24;83.38;100007.91;5042810;28;45393;-75
2021/12/24 05:53:47;;;;;;;;;18.25;14.00;;;;;8.19;83.58;100015.88;5045432;28;45436;-75
2021/12/24 05:56:12;;;;;;;;;16.25;12.75;;;;;8.21;83.26;100021.13;5056408;28;45314;-75
2021/12/24 05:58:38;;;;;;;;;15.75;12.75;;;;;8.22;83.97;100028.13;5054636;28;45382;-76
2021/12/24 06:01:04;;;;;;;;;19.00;15.75;;;;;8.22;84.20;100020.22;5056910;28;45421;-75
2021/12/24 06:03:29;;;;;;;;;21.00;17.25;;;;;8.18;84.62;100022.03;5048231;28;45531;-76
2021/12/24 06:05:54;;;;;;;;;14.25;8.00;;;;;8.21;84.63;100019.34;5037106;28;45472;-75
2021/12/24 06:08:20;;;;;;;;;17.00;14.00;;;;;8.22;84.48;100020.22;5045129;28;45369;-75
2021/12/24 06:10:45;;;;;;;;;23.00;15.00;;;;;8.18;84.83;100020.28;5056427;28;45350;-76
2021/12/24 06:13:11;;;;;;;;;18.25;14.50;;;;;8.24;84.52;100024.56;5049815;28;45419;-74
2021/12/24 06:15:46;;;;;;;;;20.25;14.25;;;;;8.22;85.20;100026.34;5056088;28;45560;-76
2021/12/24 06:18:22;;;;;;;;;18.75;15.25;;;;;8.25;84.68;100026.28;5035939;28;45486;-76
2021/12/24 06:20:48;;;;;;;;;13.25;11.00;;;;;8.24;85.36;100024.56;5054606;28;45512;-75
2021/12/24 06:23:13;;;;;;;;;14.00;11.75;;;;;8.29;85.84;100027.97;5049427;28;45400;-76
2021/12/24 06:25:38;;;;;;;;;22.75;14.75;;;;;8.31;85.22;100025.31;5055615;28;46116;-75
2021/12/24 06:28:04;;;;;;;;;27.50;19.00;;;;;8.30;85.76;100015.69;5054613;28;45509;-76
2021/12/24 06:30:30;;;;;;;;;16.25;11.75;;;;;8.33;85.56;100019.09;5054529;28;45511;-75
2021/12/24 06:32:57;;;;;;;;;17.00;16.00;;;;;8.33;85.99;100019.09;5045072;28;45272;-75
2021/12/24 06:35:24;;;;;;;;;18.00;18.00;;;;;8.36;85.66;100023.44;5037443;28;46600;-76
2021/12/24 06:37:50;;;;;;;;;16.00;13.50;;;;;8.35;86.45;100016.44;5057533;28;45327;-75
2021/12/24 06:40:16;;;;;;;;;15.00;13.50;;;;;8.37;86.28;100014.66;5064689;28;45327;-75
2021/12/24 06:42:42;;;;;;;;;15.00;15.00;;;;;8.38;86.22;100010.25;5062505;28;45455;-75
2021/12/24 06:45:07;;;;;;;;;17.50;12.25;;;;;8.38;86.83;100005.00;5046304;28;46062;-76
2021/12/24 06:47:33;;;;;;;;;15.50;15.50;;;;;8.38;86.74;100005.00;5054700;28;45447;-79
2021/12/24 06:49:58;;;;;;;;;17.25;13.75;;;;;8.36;86.60;100003.25;5037550;28;45868;-75
2021/12/24 06:52:24;;;;;;;;;16.50;12.00;;;;;8.38;86.50;100008.50;5040194;28;45383;-76
2021/12/24 06:54:49;;;;;;;;;13.25;12.00;;;;;8.33;87.09;100005.94;5046927;28;46059;-76
2021/12/24 06:57:18;;;;;;;;;10.00;9.50;;;;;8.33;86.74;100005.09;5035609;28;45413;-76
2021/12/24 06:59:43;;;;;;;;;13.00;11.00;;;;;8.34;86.78;100005.06;5053126;28;45412;-76
2021/12/24 07:02:09;;;;;;;;;14.50;12.00;;;;;8.35;87.09;100009.44;5053958;28;45346;-75
2021/12/24 07:04:34;;;;;;;;;6.75;4.00;;;;;8.36;87.23;100012.91;5055765;28;46188;-75
2021/12/24 07:07:00;;;;;;;;;13.00;13.00;;;;;8.37;87.77;100017.31;5053474;28;45519;-75
2021/12/24 07:09:25;;;;;;;;;12.00;11.25;;;;;8.34;87.60;99996.28;5055235;28;45374;-77
2021/12/24 07:11:50;;;;;;;;;6.00;6.00;;;;;8.34;87.88;100002.41;5055753;28;45353;-75
2021/12/24 07:14:16;;;;;;;;;10.00;10.00;;;;;8.34;87.84;99999.78;5039967;28;45362;-75
2021/12/24 07:16:41;;;;;;;;;7.50;6.00;;;;;8.33;88.58;99998.03;5043664;28;45440;-76
2021/12/24 07:19:06;;;;;;;;;11.50;9.00;;;;;8.38;88.62;99999.72;5043696;28;45552;-77
2021/12/24 07:21:35;;;;;;;;;10.00;9.25;;;;;8.38;88.81;99995.34;5034643;28;45484;-77
2021/12/24 07:24:02;;;;;;;;;3.00;1.00;;;;;8.39;88.03;99998.84;5047149;28;46867;-76
2021/12/24 07:26:27;;;;;;;;;7.75;7.75;;;;;8.40;88.73;99993.53;5052725;28;45549;-76
2021/12/24 07:28:52;;;;;;;;;20.00;15.50;;;;;8.40;88.35;99997.94;5052466;28;45492;-75
2021/12/24 07:31:18;;;;;;;;;12.00;7.00;;;;;8.41;88.81;100002.28;5054458;28;45381;-76
2021/12/24 07:33:43;;;;;;;;;10.00;10.00;;;;;8.40;88.95;99982.16;5048178;28;45605;-76
2021/12/24 07:36:09;;;;;;;;;8.50;8.50;;;;;8.39;88.54;99981.25;5054240;28;45445;-76
2021/12/24 07:38:34;;;;;;;;;7.50;7.50;;;;;8.40;88.43;99977.72;5055090;28;45472;-77
2021/12/24 07:41:00;;;;;;;;;9.00;9.00;;;;;8.39;89.22;99964.59;5035854;28;45646;-76
2021/12/24 07:43:26;;;;;;;;;0.00;0.00;;;;;8.42;88.65;99975.06;5045647;28;45947;-76
2021/12/24 07:45:54;;;;;;;;;6.75;6.50;;;;;8.42;88.69;99981.19;5044251;28;45442;-75
2021/12/24 07:48:27;;;;;;;;;9.00;7.00;;;;;8.46;88.56;99993.44;5053556;28;45412;-76
2021/12/24 07:53:19;;;;;;;;;8.50;8.50;;;;;8.46;88.56;100000.50;5054542;28;46120;-76
2021/12/24 07:55:45;;;;;;;;;11.00;5.00;;;;;8.46;88.59;99988.19;5048263;28;45341;-79
2021/12/24 07:58:13;;;;;;;;;10.25;7.25;;;;;8.51;88.96;100001.25;5058454;28;45338;-79
2021/12/24 08:00:40;;;;;;;;;4.50;0.75;;;;;8.50;88.67;99999.50;5055065;28;45298;-80
2021/12/24 08:03:06;;;;;;;;;11.25;9.75;;;;;8.51;88.60;99986.31;5052533;28;46312;-80
2021/12/24 08:05:35;;;;;;;;;7.50;6.75;;;;;8.52;88.64;99989.81;5071103;28;45452;-80
2021/12/24 08:08:01;;;;;;;;;6.75;5.50;;;;;8.53;88.25;99995.06;5056059;28;45405;-79
2021/12/24 08:10:27;;;;;;;;;9.00;6.50;;;;;8.50;88.44;99983.69;5056035;28;45464;-80
2021/12/24 08:12:53;;;;;;;;;8.00;6.25;;;;;8.54;88.69;99982.75;5053011;28;46183;-79
2021/12/24 08:15:19;;;;;;;;;12.75;12.50;;;;;8.52;88.88;99979.28;5044305;28;45391;-79
2021/12/24 08:17:45;;;;;;;;;5.75;5.50;;;;;8.55;88.88;99981.84;5050583;28;45393;-81
2021/12/24 08:20:12;;;;;;;;;12.50;7.50;;;;;8.52;88.79;99971.38;5044524;28;45628;-77
2021/12/24 08:22:38;;;;;;;;;25.50;23.50;;;;;8.54;89.03;99986.22;5066772;28;47273;-79
2021/12/24 08:25:06;;;;;;;;;9.25;9.25;;;;;8.53;88.71;99978.38;5044002;28;45387;-78
2021/12/24 08:27:32;;;;;;;;;9.50;9.50;;;;;8.48;88.87;99970.56;5041930;28;45598;-80
2021/12/24 08:29:58;;;;;;;;;9.75;7.50;;;;;8.51;89.13;99982.81;5051831;28;45360;-79
2021/12/24 08:32:23;;;;;;;;;21.25;13.00;;;;;8.54;89.07;99988.00;5042762;28;45478;-79
2021/12/24 08:34:51;;;;;;;;;15.25;12.75;;;;;8.54;88.95;99982.75;5064544;28;45509;-79
2021/12/24 08:37:17;;;;;;;;;11.50;9.00;;;;;8.52;88.98;99974.88;5037518;28;45610;-76
2021/12/24 08:39:42;;;;;;;;;13.75;11.00;;;;;8.58;89.26;99986.16;5048451;28;45662;-75
2021/12/24 08:42:08;;;;;;;;;8.25;8.25;;;;;8.55;89.31;99968.69;5057357;28;45585;-78
2021/12/24 08:44:34;;;;;;;;;17.75;17.00;;;;;8.62;88.72;99969.41;5047993;28;45456;-77
2021/12/24 08:47:01;;;;;;;;;17.00;9.75;;;;;8.60;88.55;99969.44;5070724;28;45533;-77
2021/12/24 08:49:28;;;;;;;;;12.50;12.00;;;;;8.61;89.04;99968.56;5045789;28;45445;-78
2021/12/24 08:51:54;;;;;;;;;12.75;10.75;;;;;8.63;89.09;99966.75;5050222;28;45399;-79
2021/12/24 08:54:21;;;;;;;;;10.00;9.75;;;;;8.68;88.99;99969.28;5054073;28;45496;-78
2021/12/24 08:56:47;;;;;;;;;18.50;18.50;;;;;8.66;88.60;99958.78;5038062;28;45404;-79
2021/12/24 08:59:13;;;;;;;;;18.25;12.75;;;;;8.68;88.76;99956.09;5052990;28;45463;-76
2021/12/24 09:01:42;;;;;;;;;14.75;12.00;;;;;8.71;89.13;99967.47;5047277;28;45429;-76
2021/12/24 09:04:07;;;;;;;;;8.00;6.50;;;;;8.75;88.59;99968.25;5060160;28;45465;-80
2021/12/24 09:06:33;;;;;;;;;11.25;9.50;;;;;8.75;88.86;99967.38;5062110;28;45497;-81
2021/12/24 09:08:58;;;;;;;;;6.50;5.50;;;;;8.74;88.98;99971.78;5052920;28;45319;-81
2021/12/24 09:11:23;;;;;;;;;11.50;11.50;;;;;8.77;88.51;99966.44;5054892;28;46155;-74
2021/12/24 09:13:49;;;;;;;;;13.75;13.00;;;;;8.81;88.87;99978.66;5052313;28;45468;-75
2021/12/24 09:16:14;;;;;;;;;4.00;4.00;;;;;8.83;88.52;99975.97;5040817;28;45311;-76
2021/12/24 09:18:41;;;;;;;;;10.25;10.25;;;;;8.81;88.62;99970.75;5052393;28;45559;-76
2021/12/24 09:21:14;;;;;;;;;17.75;7.50;;;;;8.85;89.02;99974.16;5059509;28;45355;-75
2021/12/24 09:23:42;;;;;;;;;15.00;11.50;;;;;8.84;88.38;99972.44;5053716;28;45729;-76
2021/12/24 09:26:07;;;;;;;;;12.50;12.25;;;;;8.90;88.70;99967.03;5036694;28;45476;-75
2021/12/24 09:28:32;;;;;;;;;12.00;9.50;;;;;8.94;88.36;99973.09;5045265;28;45721;-74
2021/12/24 09:30:58;;;;;;;;;18.00;14.00;;;;;9.01;88.81;99972.06;5040126;28;48050;-77
2021/12/24 09:33:23;;;;;;;;;7.00;6.00;;;;;9.04;88.48;99978.13;5048291;28;45689;-84
2021/12/24 09:35:49;;;;;;;;;12.25;7.00;;;;;9.10;88.39;99968.34;5045874;28;45968;-75
2021/12/24 09:38:14;;;;;;;;;12.50;7.50;;;;;9.14;88.57;99973.50;5046507;28;45521;-76
2021/12/24 09:40:39;;;;;;;;;6.50;6.00;;;;;9.19;88.54;99969.00;5038260;28;45739;-75
2021/12/24 09:43:05;;;;;;;;;14.50;13.50;;;;;9.27;88.02;99960.03;5049933;28;45375;-77
2021/12/24 09:45:30;;;;;;;;;7.50;6.50;;;;;9.37;88.12;99953.63;5048469;28;45366;-76
2021/12/24 09:47:56;;;;;;;;;4.00;4.00;;;;;9.55;87.04;99952.28;5049664;28;45472;-76
2021/12/24 09:50:24;;;;;;;;;8.50;6.00;;;;;9.77;86.58;99948.19;5056018;28;45322;-76
2021/12/24 09:52:49;;;;;;;;;8.00;8.00;;;;;9.94;85.90;99957.41;5055024;28;46290;-76
2021/12/24 09:55:18;;;;;;;;;10.25;9.00;;;;;9.98;85.65;99964.34;5048348;28;45461;-75
2021/12/24 09:57:44;;;;;;;;;7.00;7.00;;;;;9.98;85.28;99959.06;5047802;28;45470;-76
2021/12/24 10:00:12;;;;;;;;;12.50;6.50;;;;;10.09;84.87;99961.41;5047390;28;46263;-76
2021/12/24 10:02:42;;;;;;;;;9.50;9.00;;;;;10.07;84.57;99958.81;5044220;28;45429;-77
2021/12/24 10:05:31;;;;;;;;;5.50;5.50;;;;;10.11;84.27;99952.56;5047122;28;45453;-78
2021/12/24 10:08:02;;;;;;;;;10.75;9.00;;;;;10.10;84.41;99944.69;5055748;28;45487;-77
2021/12/24 10:10:30;;;;;;;;;10.50;6.75;;;;;10.12;83.99;99932.28;5050765;28;46135;-79
2021/12/24 10:12:58;;;;;;;;;11.00;11.00;;;;;10.13;84.39;99945.44;5041038;28;45489;-79
2021/12/24 10:15:23;;;;;;;;;17.00;16.75;;;;;10.22;84.10;99930.25;5045286;28;45406;-78
2021/12/24 10:17:49;;;;;;;;;9.25;9.25;;;;;10.33;83.89;99928.19;5053066;28;45327;-77
2021/12/24 10:20:17;;;;;;;;;13.00;12.00;;;;;10.47;83.63;99939.22;5058555;28;46146;-77
2021/12/24 10:22:49;;;;;;;;;10.25;7.50;;;;;10.56;83.25;99939.88;5056370;28;45607;-80
2021/12/24 10:25:16;;;;;;;;;9.50;9.50;;;;;10.54;82.73;99944.34;5055407;28;45334;-79
2021/12/24 10:27:43;;;;;;;;;10.75;10.25;;;;;10.53;82.66;99932.03;5049880;28;45528;-77
2021/12/24 10:30:21;;;;;;;;;13.00;11.00;;;;;10.53;82.84;99927.59;5041273;28;45451;-78
2021/12/24 10:32:48;;;;;;;;;7.00;4.00;;;;;10.48;82.55;99922.47;5049016;28;45339;-78
2021/12/24 10:35:26;;;;;;;;;3.00;1.00;;;;;10.48;82.68;99924.25;5051934;28;45382;-78
2021/12/24 10:38:15;;;;;;;;;13.50;9.00;;;;;10.49;82.81;99929.47;5043335;28;45658;-78
2021/12/24 10:40:59;;;;;;;;;10.00;9.25;;;;;10.47;82.86;99915.44;5038305;28;46570;-78
2021/12/24 10:43:28;;;;;;;;;14.75;12.00;;;;;10.52;82.55;99912.66;5054951;28;45459;-79
2021/12/24 10:46:15;;;;;;;;;9.50;8.00;;;;;10.55;82.71;99906.41;5053769;28;45316;-78
2021/12/24 10:49:00;;;;;;;;;10.00;10.00;;;;;10.54;82.42;99907.34;5045920;28;45545;-78
2021/12/24 10:51:53;;;;;;;;;10.00;8.25;;;;;10.58;81.97;99896.63;5055439;28;45396;-79
2021/12/24 10:54:11;;;;;;;;;11.00;7.50;;;;;10.62;82.46;99913.25;5054269;28;45404;-78
2021/12/24 10:56:38;;;;;;;;;6.25;5.00;;;;;10.67;82.45;99898.09;5036545;28;45382;-78
2021/12/24 10:59:05;;;;;;;;;10.50;9.00;;;;;10.68;81.98;99901.63;5048298;28;45734;-80
2021/12/24 11:01:30;;;;;;;;;5.00;5.00;;;;;10.63;82.20;99899.13;5054666;28;46155;-78
2021/12/24 11:03:56;;;;;;;;;13.50;9.00;;;;;10.65;82.36;99900.81;5054618;28;45491;-79
2021/12/24 11:06:29;;;;;;;;;6.00;4.00;;;;;10.64;82.23;99895.56;5041041;28;45426;-79
2021/12/24 11:08:56;;;;;;;;;11.00;9.50;;;;;10.65;82.27;99873.50;5042402;28;45675;-77
2021/12/24 11:11:21;;;;;;;;;13.00;9.25;;;;;10.69;82.32;99872.53;5036050;28;45440;-78
2021/12/24 11:13:48;;;;;;;;;8.00;4.50;;;;;10.67;81.95;99876.97;5045945;28;45278;-80
2021/12/24 11:16:18;;;;;;;;;10.00;6.00;;;;;10.63;81.93;99859.50;5052742;28;45451;-79
2021/12/24 11:18:53;;;;;;;;;16.50;15.00;;;;;10.61;82.33;99859.53;5047491;28;45465;-79
2021/12/24 11:21:23;;;;;;;;;8.50;6.25;;;;;10.60;81.86;99855.16;5043880;28;45522;-80
2021/12/24 11:23:50;;;;;;;;;20.00;15.50;;;;;10.58;81.87;99848.19;5041886;28;45437;-78
2021/12/24 11:26:20;;;;;;;;;7.00;6.00;;;;;10.56;82.06;99845.59;5049599;28;45302;-78
2021/12/24 11:28:47;;;;;;;;;9.00;7.50;;;;;10.56;82.02;99850.03;5046198;28;45616;-79
2021/12/24 11:31:19;;;;;;;;;6.75;3.00;;;;;10.45;82.27;99826.59;5046194;28;47263;-79
2021/12/24 11:33:46;;;;;;;;;5.75;5.75;;;;;10.56;82.21;99839.44;5056261;28;45434;-78
2021/12/24 11:36:17;;;;;;;;;9.75;6.75;;;;;10.58;82.00;99832.34;5046488;28;45461;-78
2021/12/24 11:38:51;;;;;;;;;12.00;6.25;;;;;10.55;82.04;99817.47;5051755;28;45536;-78
2021/12/24 11:41:19;;;;;;;;;10.00;8.00;;;;;10.58;82.13;99824.41;5044749;28;46301;-78
2021/12/24 11:43:48;;;;;;;;;6.00;6.00;;;;;10.59;82.44;99829.63;5059183;28;45456;-78
2021/12/24 11:46:17;;;;;;;;;11.50;9.75;;;;;10.59;82.44;99828.78;5046923;28;45367;-80
2021/12/24 11:48:44;;;;;;;;;8.00;4.50;;;;;10.58;81.96;99820.00;5049497;28;45409;-80
2021/12/24 11:51:23;;;;;;;;;10.00;10.00;;;;;10.65;81.99;99839.16;5041183;28;47387;-79
2021/12/24 11:53:51;;;;;;;;;9.00;7.25;;;;;10.68;82.01;99836.41;5063543;28;45497;-79
2021/12/24 11:56:19;;;;;;;;;8.00;7.00;;;;;10.68;81.96;99849.63;5053095;28;45414;-80
2021/12/24 11:58:47;;;;;;;;;13.50;9.50;;;;;10.68;82.02;99833.78;5053301;28;45504;-79
2021/12/24 12:01:17;;;;;;;;;10.25;8.75;;;;;10.70;82.06;99837.22;5052505;28;46033;-79
2021/12/24 12:03:49;;;;;;;;;7.50;7.50;;;;;10.76;82.22;99833.53;5046701;28;45440;-79
2021/12/24 12:06:17;;;;;;;;;11.50;9.50;;;;;10.79;82.03;99842.22;5053378;28;45274;-79
2021/12/24 12:08:47;;;;;;;;;10.00;9.25;;;;;10.75;81.86;99829.13;5047398;28;45573;-79
2021/12/24 12:11:24;;;;;;;;;16.50;12.75;;;;;10.82;82.09;99831.53;5036627;28;46424;-79
2021/12/24 12:13:59;;;;;;;;;9.00;9.00;;;;;10.82;81.64;99831.53;5046334;28;45395;-79
2021/12/24 12:16:39;;;;;;;;;6.50;6.00;;;;;10.79;81.68;99844.84;5038130;28;45418;-79
2021/12/24 12:22:32;;;;;;;;;3.00;3.00;;;;;10.77;81.77;99845.84;5038495;28;45558;-79
2021/12/24 12:24:59;;;;;;;;;10.00;8.50;;;;;10.77;81.84;99836.13;5045609;28;45470;-79
2021/12/24 12:27:43;;;;;;;;;3.00;1.00;;;;;10.78;82.10;99834.31;5043800;28;45666;-78
2021/12/24 12:30:20;;;;;;;;;15.50;10.00;;;;;10.79;81.54;99841.34;5041576;28;45620;-76
2021/12/24 12:32:46;;;;;;;;;12.75;10.00;;;;;10.75;81.98;99840.59;5040615;28;45463;-76
2021/12/24 12:35:12;;;;;;;;;15.75;11.25;;;;;10.75;82.01;99830.03;5051967;28;45627;-76
2021/12/24 12:37:53;;;;;;;;;6.75;4.00;;;;;10.77;82.25;99822.91;5049697;28;45488;-77
2021/12/24 12:40:18;;;;;;;;;19.00;15.25;;;;;10.83;81.74;99812.13;5034667;28;45437;-77
2021/12/24 12:42:54;;;;;;;;;6.00;6.00;;;;;10.89;81.68;99818.16;5041098;28;45483;-76
2021/12/24 12:45:22;;;;;;;;;11.25;10.00;;;;;10.89;81.46;99816.34;5043169;28;45396;-76
2021/12/24 12:47:59;;;;;;;;;11.50;7.00;;;;;10.92;80.92;99815.41;5044180;28;45519;-76
2021/12/24 12:50:26;;;;;;;;;12.75;10.50;;;;;10.92;81.09;99799.53;5046039;28;45633;-79
2021/12/24 12:52:58;;;;;;;;;11.00;9.00;;;;;10.93;80.90;99799.47;5042454;28;45540;-80
2021/12/24 12:55:32;;;;;;;;;7.50;6.50;;;;;10.95;80.53;99799.44;5044962;28;45408;-80
2021/12/24 12:58:20;;;;;;;;;9.75;6.50;;;;;11.07;80.55;99798.13;5045381;28;45615;-80
2021/12/24 13:01:15;;;;;;;;;11.00;10.00;;;;;11.19;79.95;99782.72;5050179;28;45740;-79
2021/12/24 13:03:55;;;;;;;;;7.50;7.00;;;;;11.28;79.36;99791.22;5043932;28;45460;-77
2021/12/24 13:06:45;;;;;;;;;2.75;2.75;;;;;11.30;79.44;99790.25;5044723;28;45482;-78
2021/12/24 13:09:16;;;;;;;;;6.75;6.75;;;;;11.30;79.24;99784.97;5048198;28;45568;-79